Anapa, Russia

5:36 AM MSK on July 25, 2014 (GMT +0400)
Vityazevo (URKA) Elev 174 ft | 45.00 °N, 37.35 °E | Change Station

Current weather conditions updated 36 minutes ago

Mostly Cloudy
Mostly Cloudy
75 °F
Feels Like 75 °F
N
2
Wind Variable Wind from Variable

Today is forecast to be Much Cooler than yesterday.

Today
High -- | Low -- °F
--% Chance of Precip.
Yesterday
High -- | Low -- °F
Precip. -- in
6:08 AM 9:05 PM
Waning Crescent, 3% visible
Pressure 29.68 in
Visibility 6.2 miles
Clouds Few 4000 ft
Mostly Cloudy 12000 ft
Dew Point 70 °F
Humidity 83%
Rainfall 0.00 in
Snow Depth Not available.
UV 0 out of 12
Pollen Not available.
Air Quality Not available.
Flu Activity Not available.
METAR URKA 250100Z VRB01MPS 9999 FEW040 BKN120 24/21 Q1005 RMK QFE750/1000

More Conditions Fewer Conditions

Pressure 29.68 in
Visibility 6.2 miles
Clouds Few 4000 ft
Mostly Cloudy 12000 ft
Dew Point 70 °F
Humidity 83%
Rainfall 0.00 in
Snow Depth Not available.
UV 0 out of 12
Pollen Not available.
Air Quality Not available.
Flu Activity Not available.
METAR URKA 250100Z VRB01MPS 9999 FEW040 BKN120 24/21 Q1005 RMK QFE750/1000

More Conditions Fewer Conditions

10-Day Weather Forecast

Almanac

Astronomy

Jul. 25, 2014 Rise Set
Actual Time 6:08 AM MSK 9:05 PM MSK
Civil Twilight 5:33 AM MSK 9:40 PM MSK
Nautical Twilight 4:49 AM MSK 10:24 PM MSK
Astronomical Twilight 3:56 AM MSK 11:16 PM MSK
Moon 4:50 AM MSK 7:46 PM MSK
Length of Visible Light 16h 06m
Length of Day
14h 57m
Tomorrow will be 2m 8s shorter.
Waning Crescent, 3% of the Moon is Illuminated
Jul 24
Waning Crescent
Jul 26
New
Aug 3
First Quarter
Aug 10
Full
Aug 17
Last Quarter

Yesterday's Extremes

Country Highs Country Lows

Community

WunderPhotos

Upload Photos

1,737,184 photos uploaded!

Nearby

Snow Depth

Not available.

Earthquake Activity

City Distance Mag. Time & Date
No recent earthquake activity has been reported nearby.
Minimum magnitude displayed is 2.5.

Coastal Water Temperatures

Place Temperature
No Stations Reporting

Nearby Weather Stations

There are no personal weather stations in this area.